»·PEaware :: N221XG KVNY-KIFP

N221XG :: KVNY-KIFP

FLIGHT INFORMATION

Flight Status: Arrived
Operator: Privately registered:
United States
More flights under this callsign
Pilot: Ryan L. (9775)
Aircraft: Unknown
(DA62)
More flights by this aircraft type
Origin: KVNY Van Nuys
United States
Destination: KIFP Laughlin/Bullhead Intl
United States
More flights between these airports :: More routes between these airports
Route: DIRECT
File this flight plan on PilotEdge
Remarks: dead head leg 1 to ABQ
Altitude:
(Current/Filed)
9,500ft
Speed:
(Current/Filed)
170kts
Departed: 06-Aug-18 07:04 PM
Arrived: 06-Aug-18 08:25 PM
Distance/Time
Traveled:
202nm/1:21
Distance/Time
To Go:
Arrived

Flight Plot

Page will automatically refresh every two minutes.

Flight plan parsing failed; only flown route is shown


Map Options




Map Legend


Flown Route
Filed Route
Departure Airport
Arrival Airport
Navaid (VOR, NDB)
Fix

Horizontal Profiles

Position Reports

Time Latitude Longitude Heading Altitude Ground
Speed
06-Aug-18 18:40 34.200889 -118.487731 214 805ft 0kts
06-Aug-18 18:41 34.200889 -118.487731 214 805ft 0kts
06-Aug-18 18:42 34.200889 -118.487731 214 805ft 0kts
06-Aug-18 18:43 34.200889 -118.487731 214 805ft 0kts
06-Aug-18 18:44 34.200889 -118.487731 214 805ft 0kts
06-Aug-18 18:45 34.200889 -118.487731 214 805ft 0kts
06-Aug-18 18:46 34.200889 -118.487731 214 805ft 0kts
06-Aug-18 18:47 34.200889 -118.487731 214 805ft 0kts
06-Aug-18 18:48 34.200889 -118.487731 214 805ft 0kts
06-Aug-18 18:49 34.200889 -118.487731 214 805ft 0kts
06-Aug-18 18:50 34.200889 -118.487731 214 805ft 0kts
06-Aug-18 18:51 34.200889 -118.487731 214 805ft 0kts
06-Aug-18 18:52 34.200889 -118.487731 214 805ft 0kts
06-Aug-18 18:53 34.200889 -118.487731 214 805ft 0kts
06-Aug-18 18:54 34.200889 -118.487731 214 805ft 0kts
06-Aug-18 18:55 34.200889 -118.487731 214 805ft 0kts
06-Aug-18 18:56 34.200889 -118.487731 214 805ft 0kts
06-Aug-18 18:57 34.200861 -118.487754 213 805ft 0kts
06-Aug-18 18:58 34.202121 -118.488561 358 805ft 12kts
06-Aug-18 18:59 34.206241 -118.488334 4 805ft 17kts
06-Aug-18 19:00 34.210595 -118.488414 2 805ft 15kts
06-Aug-18 19:01 34.215169 -118.488865 353 805ft 18kts
06-Aug-18 19:02 34.218865 -118.489330 287 805ft 1kts
06-Aug-18 19:03 34.218866 -118.489336 280 805ft 0kts
06-Aug-18 19:04 34.218869 -118.489468 270 805ft 3kts
06-Aug-18 19:05 34.208027 -118.488929 176 959ft 83kts
06-Aug-18 19:06 34.183360 -118.480570 117 1614ft 121kts
06-Aug-18 19:07 34.184688 -118.440066 88 2490ft 128kts
06-Aug-18 19:08 34.186374 -118.396825 91 3392ft 130kts
06-Aug-18 19:09 34.186788 -118.358073 95 4192ft 131kts
06-Aug-18 19:10 34.182281 -118.315077 103 5111ft 128kts
06-Aug-18 19:11 34.176282 -118.270428 98 5507ft 155kts
06-Aug-18 19:12 34.173404 -118.221324 94 5493ft 170kts
06-Aug-18 19:13 34.172322 -118.164341 92 5408ft 171kts
06-Aug-18 19:14 34.168755 -118.108119 96 5444ft 165kts
06-Aug-18 19:15 34.166765 -118.052284 93 5418ft 168kts
06-Aug-18 19:16 34.162605 -117.996071 99 5481ft 165kts
06-Aug-18 19:17 34.156416 -117.940192 97 5432ft 171kts
06-Aug-18 19:18 34.151614 -117.890189 98 5419ft 172kts
06-Aug-18 19:19 34.149224 -117.832741 91 5493ft 172kts
06-Aug-18 19:20 34.148700 -117.775101 91 5533ft 173kts
06-Aug-18 19:21 34.149269 -117.717117 91 5582ft 173kts
06-Aug-18 19:22 34.150642 -117.659098 86 5565ft 175kts
06-Aug-18 19:23 34.153431 -117.601165 87 5547ft 175kts
06-Aug-18 19:24 34.158512 -117.543456 82 5546ft 176kts
06-Aug-18 19:25 34.166584 -117.485623 79 5558ft 175kts
06-Aug-18 19:26 34.192630 -117.437795 27 5526ft 176kts
06-Aug-18 19:27 34.239402 -117.440417 341 5500ft 172kts
06-Aug-18 19:28 34.280700 -117.454517 340 5550ft 168kts
06-Aug-18 19:29 34.324441 -117.453866 35 5851ft 163kts
06-Aug-18 19:30 34.361303 -117.421480 33 6301ft 164kts
06-Aug-18 19:31 34.396781 -117.387927 35 6776ft 162kts
06-Aug-18 19:32 34.431151 -117.352514 40 7227ft 162kts
06-Aug-18 19:33 34.464572 -117.316259 40 7614ft 165kts
06-Aug-18 19:34 34.500178 -117.281783 30 8013ft 166kts
06-Aug-18 19:35 34.534665 -117.245547 47 8456ft 162kts
06-Aug-18 19:36 34.564928 -117.203393 48 8814ft 166kts
06-Aug-18 19:37 34.590655 -117.157358 61 9212ft 165kts
06-Aug-18 19:38 34.610277 -117.106807 67 9499ft 172kts
06-Aug-18 19:39 34.628037 -117.051828 69 9475ft 174kts
06-Aug-18 19:40 34.644667 -116.996358 70 9455ft 175kts
06-Aug-18 19:41 34.660911 -116.940724 71 9434ft 176kts
06-Aug-18 19:42 34.677246 -116.884220 71 9413ft 178kts
06-Aug-18 19:43 34.693606 -116.827352 71 9408ft 178kts
06-Aug-18 19:44 34.709926 -116.770490 71 9408ft 178kts
06-Aug-18 19:45 34.726237 -116.713539 71 9408ft 178kts
06-Aug-18 19:46 34.742519 -116.656572 71 9408ft 178kts
06-Aug-18 19:47 34.758788 -116.599533 71 9408ft 178kts
06-Aug-18 19:48 34.775023 -116.542496 71 9408ft 178kts
06-Aug-18 19:49 34.791214 -116.485474 71 9408ft 178kts
06-Aug-18 19:50 34.806762 -116.428235 74 9408ft 178kts
06-Aug-18 19:51 34.821021 -116.370436 73 9413ft 178kts
06-Aug-18 19:52 34.835065 -116.312933 74 9423ft 178kts
06-Aug-18 19:53 34.849183 -116.255488 73 9434ft 177kts
06-Aug-18 19:54 34.863430 -116.198079 73 9445ft 177kts
06-Aug-18 19:55 34.877614 -116.141149 73 9453ft 174kts
06-Aug-18 19:56 34.891537 -116.085059 73 9453ft 172kts
06-Aug-18 19:57 34.905332 -116.029389 73 9452ft 172kts
06-Aug-18 19:58 34.919123 -115.973627 73 9452ft 172kts
06-Aug-18 19:59 34.932902 -115.917802 73 9451ft 172kts
06-Aug-18 20:00 34.946668 -115.861910 73 9451ft 172kts
06-Aug-18 20:01 34.960388 -115.806089 73 9451ft 172kts
06-Aug-18 20:02 34.974061 -115.750334 73 9452ft 172kts
06-Aug-18 20:03 34.987720 -115.694518 73 9453ft 172kts
06-Aug-18 20:04 35.001457 -115.638186 73 9433ft 176kts
06-Aug-18 20:05 35.015542 -115.580420 73 9395ft 179kts
06-Aug-18 20:06 35.033159 -115.523874 71 9359ft 180kts
06-Aug-18 20:07 35.049605 -115.466128 71 9327ft 180kts
06-Aug-18 20:08 35.066044 -115.408373 71 9317ft 180kts
06-Aug-18 20:09 35.082464 -115.350715 71 9319ft 179kts
06-Aug-18 20:10 35.097825 -115.295402 72 9312ft 178kts
06-Aug-18 20:11 35.113350 -115.240649 72 9297ft 178kts
06-Aug-18 20:12 35.129525 -115.183526 72 9277ft 178kts
06-Aug-18 20:13 35.139238 -115.124735 85 9271ft 178kts
06-Aug-18 20:14 35.145024 -115.064683 84 9267ft 179kts
06-Aug-18 20:15 35.151554 -115.004326 84 9263ft 180kts
06-Aug-18 20:16 35.161612 -114.945994 77 9087ft 169kts
06-Aug-18 20:17 35.172222 -114.886393 80 7602ft 185kts
06-Aug-18 20:18 35.181730 -114.824538 81 6097ft 185kts
06-Aug-18 20:19 35.189942 -114.768185 83 5550ft 158kts
06-Aug-18 20:20 35.184076 -114.716068 115 5050ft 145kts
06-Aug-18 20:21 35.180583 -114.668579 87 3878ft 146kts
06-Aug-18 20:22 35.186541 -114.626018 78 3046ft 106kts
06-Aug-18 20:23 35.191687 -114.591945 92 1867ft 96kts
06-Aug-18 20:24 35.188803 -114.563683 141 1162ft 80kts
06-Aug-18 20:25 35.167258 -114.560222 175 760ft 78kts
06-Aug-18 20:26 35.155898 -114.558904 89 705ft 10kts
06-Aug-18 20:27 35.159405 -114.558285 356 705ft 20kts
06-Aug-18 20:28 35.162878 -114.557565 116 705ft 5kts
06-Aug-18 20:29 35.160962 -114.556547 88 705ft 8kts
06-Aug-18 20:30 35.160760 -114.556425 262 705ft 0kts

Navigation Log

Ident Type
Flight plan parsing failed, navigation log unavailable